Wied, Texas
Current Conditions -  °F | °C
As of 9:35 PM on Monday 20 Oct 2014 (Local Time) from K66R Reporting Station
Clear Clear  
Wind Chill: 20°   Ceiling: Unl
Heat Index: 20°   Visibility: 10mi
Dew Point: 16°   Wind: 3mph
Humidity: 80%   Direction: 40°NE
Pressure: 30.02"   Gusts: NA
Location:  29.3984°N, 96.8256°W
Report Text: K66R 210235Z AUTO 04003KT 10SM CLR 20/16 A3002 RMK AO2 T01950160
Loading
Personal Weather Stations






























Interactive Weather Map
Tropical Storm Tracking
New forecast layout! Learn more

10-Day Weather Forecast

Advertisements
Track Severe Weather on mobile